Manning, Iowa
Current Conditions -  °F | °C
As of 7:55 AM on Thursday 23 Oct 2014 (Local Time) from KADU Reporting Station
Haze Haze  
Wind Chill: 59°   Ceiling: 300
Heat Index: 59°   Visibility: 2.5mi
Dew Point: 54°   Wind: 5mph
Humidity: 82%   Direction: 220°SW
Pressure: 30.03"   Gusts: NA
Location:  41.91°N, 95.06°W
Report Text: KADU 231255Z AUTO 22004KT 2 1/2SM HZ OVC003 15/12 A3003 RMK AO2
Loading
Personal Weather Stations






























Interactive Weather Map
Tropical Storm Tracking
New forecast layout! Learn more

10-Day Weather Forecast

Advertisements
Track Severe Weather on mobile